createdAt,value
2023-02-27T00:01:35.298Z,2.10
2023-02-27T00:05:37.999Z,2.40
2023-02-27T00:09:39.687Z,2.17
2023-02-27T00:13:41.043Z,2.17
2023-02-27T00:17:42.773Z,2.20
2023-02-27T00:21:45.462Z,2.33
2023-02-27T00:25:48.165Z,2.40
2023-02-27T00:29:49.545Z,2.53
2023-02-27T00:33:50.892Z,2.47
2023-02-27T00:37:53.784Z,2.13
2023-02-27T00:41:55.114Z,2.07
2023-02-27T00:45:56.469Z,2.10
2023-02-27T00:49:58.011Z,2.23
2023-02-27T00:54:00.724Z,2.10
2023-02-27T00:58:02.314Z,1.93
2023-02-27T01:02:03.744Z,1.70
2023-02-27T01:06:05.742Z,2.33
2023-02-27T01:10:11.149Z,2.23
2023-02-27T01:14:12.553Z,1.90
2023-02-27T01:18:13.958Z,1.97
2023-02-27T01:22:15.309Z,1.70
2023-02-27T01:26:18.070Z,1.70
2023-02-27T01:30:19.604Z,1.73
2023-02-27T01:34:20.991Z,1.93
2023-02-27T01:38:22.363Z,2.10
2023-02-27T01:42:27.365Z,1.73
2023-02-27T01:46:30.078Z,2.07
2023-02-27T01:50:32.043Z,1.90
2023-02-27T01:54:36.464Z,1.73
2023-02-27T01:58:39.567Z,1.90
2023-02-27T02:02:59.504Z,2.03
2023-02-27T02:07:03.779Z,1.83
2023-02-27T02:11:06.819Z,1.90
2023-02-27T02:15:10.756Z,1.87
2023-02-27T02:19:43.251Z,1.90
2023-02-27T02:24:14.229Z,1.83
2023-02-27T02:28:43.339Z,2.23
2023-02-27T02:33:14.161Z,2.00
2023-02-27T02:37:42.725Z,2.30
2023-02-27T02:41:58.142Z,1.70
2023-02-27T02:46:04.484Z,2.70
2023-02-27T02:50:12.451Z,3.17
2023-02-27T02:54:18.290Z,2.20
2023-02-27T02:58:26.217Z,2.77
2023-02-27T03:02:32.967Z,2.93
2023-02-27T03:06:37.917Z,4.17
2023-02-27T03:10:44.280Z,3.30
2023-02-27T03:14:51.531Z,3.07
2023-02-27T03:19:10.348Z,2.70
2023-02-27T03:23:16.483Z,2.20
2023-02-27T03:27:19.927Z,2.50
2023-02-27T03:31:30.156Z,2.40
2023-02-27T03:35:41.667Z,2.50
2023-02-27T03:39:47.046Z,3.17
2023-02-27T03:43:58.308Z,3.27
2023-02-27T03:48:01.873Z,2.70
2023-02-27T03:52:03.321Z,2.13
2023-02-27T03:56:08.741Z,2.00
2023-02-27T04:00:14.089Z,2.27
2023-02-27T04:04:18.231Z,2.40
2023-02-27T04:08:40.865Z,2.20
2023-02-27T04:13:13.038Z,2.10
2023-02-27T04:17:22.812Z,2.13
2023-02-27T04:21:32.635Z,2.10
2023-02-27T04:25:46.015Z,2.23
2023-02-27T04:29:54.423Z,2.20
2023-02-27T04:34:01.443Z,2.20
2023-02-27T04:38:11.229Z,1.90
2023-02-27T04:42:17.174Z,2.33
2023-02-27T04:46:23.710Z,2.20
2023-02-27T04:50:29.978Z,2.57
2023-02-27T04:54:39.064Z,2.10
2023-02-27T04:58:45.374Z,2.10
2023-02-27T05:02:51.760Z,2.23
2023-02-27T05:06:55.365Z,2.03
2023-02-27T05:11:05.846Z,1.93
2023-02-27T05:15:13.694Z,2.67
2023-02-27T05:19:15.405Z,2.50
2023-02-27T05:23:25.174Z,2.10
2023-02-27T05:27:37.118Z,2.23
2023-02-27T05:31:46.451Z,2.80
2023-02-27T05:35:52.808Z,2.50
2023-02-27T05:39:54.845Z,3.00
2023-02-27T05:44:02.204Z,3.00
2023-02-27T05:48:08.837Z,2.87
2023-02-27T05:52:16.084Z,2.50
2023-02-27T05:56:21.087Z,2.40
2023-02-27T06:00:31.415Z,2.33
2023-02-27T06:04:32.864Z,2.90
2023-02-27T06:08:35.057Z,2.43
2023-02-27T06:12:36.554Z,2.60
2023-02-27T06:16:39.529Z,2.40
2023-02-27T06:20:42.213Z,2.93
2023-02-27T06:24:43.608Z,2.40
2023-02-27T06:28:45.254Z,2.87
2023-02-27T06:32:48.019Z,2.43
2023-02-27T06:36:49.398Z,2.37
2023-02-27T06:40:50.941Z,2.70
2023-02-27T06:44:52.570Z,2.60
2023-02-27T06:48:55.284Z,2.10
2023-02-27T06:52:56.668Z,2.20
2023-02-27T06:56:58.055Z,2.67
2023-02-27T07:00:59.890Z,2.40
2023-02-27T07:05:05.235Z,2.40
2023-02-27T07:09:09.730Z,2.97
2023-02-27T07:13:13.720Z,2.57
2023-02-27T07:17:17.288Z,2.57
2023-02-27T07:21:20.017Z,2.57
2023-02-27T07:25:22.512Z,2.40
2023-02-27T07:29:23.892Z,2.60
2023-02-27T07:33:25.395Z,2.30
2023-02-27T07:37:28.327Z,2.60
2023-02-27T07:41:31.117Z,2.13
2023-02-27T07:45:32.669Z,2.30
2023-02-27T07:49:34.042Z,2.40
2023-02-27T07:53:36.770Z,2.47
2023-02-27T07:57:38.688Z,2.20
2023-02-27T08:01:40.105Z,1.90
2023-02-27T08:05:41.526Z,1.90
2023-02-27T08:09:44.290Z,1.80
2023-02-27T08:13:59.977Z,2.00
2023-02-27T08:18:02.212Z,1.90
2023-02-27T08:22:03.660Z,1.90
2023-02-27T08:26:06.582Z,1.97
2023-02-27T08:30:10.454Z,1.87
2023-02-27T08:34:12.245Z,2.50
2023-02-27T08:38:13.619Z,2.30
2023-02-27T08:42:16.561Z,1.97
2023-02-27T08:46:17.991Z,2.20
2023-02-27T08:50:19.711Z,2.37
2023-02-27T08:54:21.094Z,1.93
2023-02-27T08:58:23.890Z,2.10
2023-02-27T09:02:25.303Z,2.17
2023-02-27T09:06:28.171Z,2.00
2023-02-27T09:10:29.884Z,2.10
2023-02-27T09:14:32.821Z,1.90
2023-02-27T09:18:34.163Z,2.10
2023-02-27T09:22:35.558Z,2.17
2023-02-27T09:26:45.666Z,2.30
2023-02-27T09:30:49.767Z,2.53
2023-02-27T09:34:51.516Z,2.37
2023-02-27T09:38:53.189Z,2.23
2023-02-27T09:43:12.697Z,2.20
2023-02-27T09:47:21.017Z,2.00
2023-02-27T09:51:23.374Z,2.60
2023-02-27T09:55:31.861Z,2.30
2023-02-27T09:59:36.940Z,2.10
2023-02-27T10:03:58.938Z,2.07
2023-02-27T10:08:09.605Z,1.90
2023-02-27T10:12:27.056Z,1.93
2023-02-27T10:16:32.026Z,2.07
2023-02-27T10:20:38.268Z,2.40
2023-02-27T10:24:45.072Z,2.40
2023-02-27T10:28:47.191Z,2.47
2023-02-27T10:32:52.698Z,1.80
2023-02-27T10:36:56.416Z,2.70
2023-02-27T10:41:00.111Z,2.73
2023-02-27T10:45:01.603Z,2.10
2023-02-27T10:49:13.961Z,2.10
2023-02-27T10:53:22.258Z,1.77
2023-02-27T10:57:28.197Z,1.93
2023-02-27T11:01:42.325Z,2.40
2023-02-27T11:05:54.318Z,1.80
2023-02-27T11:10:03.009Z,2.10
2023-02-27T11:14:23.190Z,1.30
2023-02-27T11:18:27.761Z,1.60
2023-02-27T11:22:31.024Z,1.40
2023-02-27T11:26:35.488Z,1.43
2023-02-27T11:30:36.883Z,1.30
2023-02-27T11:34:40.662Z,0.93
2023-02-27T11:38:49.878Z,1.30
2023-02-27T11:42:55.924Z,1.20
2023-02-27T11:47:11.647Z,0.97
2023-02-27T11:51:35.029Z,1.10
2023-02-27T11:55:37.293Z,1.00
2023-02-27T11:59:44.643Z,1.20
2023-02-27T12:03:52.422Z,1.17
2023-02-27T12:07:58.810Z,1.20
2023-02-27T12:12:02.608Z,1.20
2023-02-27T12:16:15.701Z,1.30
2023-02-27T12:20:32.278Z,1.40
2023-02-27T12:24:39.110Z,1.10
2023-02-27T12:28:50.907Z,1.30
2023-02-27T12:33:02.282Z,1.50
2023-02-27T12:37:09.404Z,1.47
2023-02-27T12:41:32.282Z,1.47
2023-02-27T12:46:19.368Z,1.40
2023-02-27T12:50:25.526Z,1.33
2023-02-27T12:54:38.810Z,1.30
2023-02-27T12:58:50.227Z,1.37
2023-02-27T13:03:08.571Z,1.60
2023-02-27T13:07:21.316Z,1.20
2023-02-27T13:11:38.279Z,1.40
2023-02-27T13:15:44.395Z,1.60
2023-02-27T13:19:52.708Z,1.30
2023-02-27T13:24:12.092Z,1.00
2023-02-27T13:28:18.685Z,1.27
2023-02-27T13:32:42.634Z,1.20
2023-02-27T13:36:48.631Z,1.30
2023-02-27T13:40:51.330Z,1.00
2023-02-27T13:44:53.467Z,0.90
2023-02-27T13:48:55.024Z,0.97
2023-02-27T13:52:56.400Z,0.80
2023-02-27T13:57:24.621Z,1.33
2023-02-27T14:01:28.377Z,1.30
2023-02-27T14:05:33.125Z,1.50
2023-02-27T14:09:38.116Z,1.50
2023-02-27T14:14:04.031Z,1.17
2023-02-27T14:18:17.908Z,1.10
2023-02-27T14:22:34.186Z,1.40
2023-02-27T14:26:38.568Z,1.30
2023-02-27T14:30:45.326Z,1.00
2023-02-27T14:34:47.600Z,1.20
2023-02-27T14:38:50.263Z,1.47
2023-02-27T14:43:02.070Z,1.30
2023-02-27T14:47:05.391Z,1.00
2023-02-27T14:51:06.901Z,1.33
2023-02-27T14:55:21.569Z,1.30
2023-02-27T14:59:24.336Z,1.30
2023-02-27T15:03:32.520Z,1.17
2023-02-27T15:07:35.216Z,1.20
2023-02-27T15:11:42.012Z,1.37
2023-02-27T15:15:43.483Z,1.10
2023-02-27T15:19:48.802Z,0.80
2023-02-27T15:23:57.397Z,1.30
2023-02-27T15:28:02.486Z,1.20
2023-02-27T15:32:05.126Z,1.00
2023-02-27T15:36:08.430Z,1.20
2023-02-27T15:40:16.184Z,1.30
2023-02-27T15:44:20.382Z,1.00
2023-02-27T15:48:22.289Z,1.10
2023-02-27T15:52:26.347Z,1.00
2023-02-27T15:56:33.956Z,1.53
2023-02-27T16:00:35.412Z,1.07
2023-02-27T16:04:36.818Z,1.30
2023-02-27T16:08:45.502Z,1.10
2023-02-27T16:12:47.196Z,1.23
2023-02-27T16:16:55.150Z,1.00
2023-02-27T16:21:08.686Z,1.10
2023-02-27T16:25:18.987Z,1.10
2023-02-27T16:29:23.029Z,1.10
2023-02-27T16:33:27.502Z,1.20
2023-02-27T16:37:35.259Z,1.20
2023-02-27T16:41:38.114Z,1.67
2023-02-27T16:45:49.988Z,1.20
2023-02-27T16:49:51.495Z,1.20
2023-02-27T16:53:54.864Z,1.10
2023-02-27T16:57:57.813Z,1.20
2023-02-27T17:02:01.124Z,1.20
2023-02-27T17:06:02.585Z,1.00
2023-02-27T17:10:04.485Z,1.13
2023-02-27T17:14:07.211Z,1.30
2023-02-27T17:18:09.547Z,1.10
2023-02-27T17:22:11.631Z,1.27
2023-02-27T17:26:13.643Z,1.13
2023-02-27T17:30:16.608Z,1.53
2023-02-27T17:34:18.119Z,1.53
2023-02-27T17:38:19.635Z,1.60
2023-02-27T17:42:22.068Z,1.80
2023-02-27T17:46:27.297Z,1.33
2023-02-27T17:50:29.028Z,1.60
2023-02-27T17:54:30.506Z,1.50
2023-02-27T17:58:32.832Z,1.50
2023-02-27T18:02:35.730Z,2.03
2023-02-27T18:06:37.285Z,1.83
2023-02-27T18:10:38.705Z,1.93
2023-02-27T18:14:40.151Z,2.40
2023-02-27T18:18:43.566Z,2.70
2023-02-27T18:22:45.065Z,2.40
2023-02-27T18:26:46.451Z,2.07
2023-02-27T18:30:47.925Z,2.67
2023-02-27T18:34:50.744Z,2.30
2023-02-27T18:38:52.209Z,2.20
2023-02-27T18:42:53.663Z,2.27
2023-02-27T18:46:55.400Z,1.90
2023-02-27T18:51:00.856Z,2.00
2023-02-27T18:55:02.456Z,2.70
2023-02-27T18:59:04.018Z,3.23
2023-02-27T19:03:05.632Z,2.80
2023-02-27T19:07:08.510Z,3.27
2023-02-27T19:11:09.931Z,3.20
2023-02-27T19:15:11.537Z,3.23
2023-02-27T19:19:12.947Z,2.70
2023-02-27T19:23:15.645Z,2.60
2023-02-27T19:27:16.982Z,3.00
2023-02-27T19:31:18.371Z,3.07
2023-02-27T19:35:20.541Z,3.07
2023-02-27T19:44:20.033Z,2.80
2023-02-27T19:48:21.484Z,2.77
2023-02-27T19:52:22.868Z,3.10
2023-02-27T19:56:27.082Z,2.70
2023-02-27T20:00:30.143Z,2.23
2023-02-27T20:04:32.179Z,2.43
2023-02-27T20:08:33.874Z,2.43
2023-02-27T20:12:35.296Z,2.43
2023-02-27T20:16:38.087Z,2.40
2023-02-27T20:20:39.544Z,2.90
2023-02-27T20:24:41.337Z,2.27
2023-02-27T20:28:42.946Z,2.50
2023-02-27T20:32:46.993Z,2.70
2023-02-27T20:36:49.447Z,2.20
2023-02-27T20:40:56.817Z,2.57
2023-02-27T20:44:58.188Z,2.80
2023-02-27T20:49:02.533Z,2.60
2023-02-27T20:53:03.909Z,3.50
2023-02-27T20:57:05.333Z,4.00
2023-02-27T21:01:08.904Z,3.00
2023-02-27T21:05:11.967Z,3.03
2023-02-27T21:09:13.439Z,3.00
2023-02-27T21:13:14.796Z,3.00
2023-02-27T21:17:16.440Z,3.13
2023-02-27T21:21:23.609Z,2.60
2023-02-27T21:25:25.536Z,2.90
2023-02-27T21:29:26.924Z,2.97
2023-02-27T21:33:28.297Z,2.57
2023-02-27T21:37:31.023Z,2.50
2023-02-27T21:41:33.014Z,2.30
2023-02-27T21:45:36.933Z,2.10
2023-02-27T21:49:38.383Z,1.90
2023-02-27T21:53:41.071Z,2.20
2023-02-27T21:57:42.498Z,2.27
2023-02-27T22:01:43.986Z,2.10
2023-02-27T22:05:45.359Z,2.20
2023-02-27T22:09:48.147Z,2.17
2023-02-27T22:13:49.536Z,2.37
2023-02-27T22:17:50.905Z,1.73
2023-02-27T22:21:52.426Z,2.10
2023-02-27T22:26:00.773Z,2.60
2023-02-27T22:30:02.148Z,1.97
2023-02-27T22:34:05.771Z,2.20
2023-02-27T22:38:07.246Z,1.80
2023-02-27T22:42:10.007Z,2.13
2023-02-27T22:46:13.942Z,2.00
2023-02-27T22:50:15.349Z,2.20
2023-02-27T22:54:18.368Z,2.00
2023-02-27T22:58:21.479Z,2.10
2023-02-27T23:02:22.925Z,1.87
2023-02-27T23:06:26.923Z,2.10
2023-02-27T23:10:28.274Z,1.93
2023-02-27T23:14:31.021Z,1.90
2023-02-27T23:18:32.383Z,2.00
2023-02-27T23:22:33.791Z,1.63
2023-02-27T23:26:35.871Z,2.23
2023-02-27T23:30:38.589Z,2.03
2023-02-27T23:34:49.139Z,2.13
2023-02-27T23:38:51.126Z,1.70
2023-02-27T23:42:53.587Z,2.10
2023-02-27T23:46:56.280Z,2.20
2023-02-27T23:50:57.830Z,2.00
2023-02-27T23:54:59.183Z,1.83
2023-02-27T23:59:03.089Z,1.83
